sensor_id;sensor_type;location;lat;lon;timestamp;pressure;altitude;pressure_sealevel;temperature;humidity
41688;BME280;27371;42.686;23.362;2023-02-20T00:01:00;164796.22;;;9.97;55.31
41688;BME280;27371;42.686;23.362;2023-02-20T00:03:25;164789.56;;;9.94;55.92
41688;BME280;27371;42.686;23.362;2023-02-20T00:05:51;164777.56;;;9.90;56.56
41688;BME280;27371;42.686;23.362;2023-02-20T00:08:16;164757.50;;;9.82;56.57
41688;BME280;27371;42.686;23.362;2023-02-20T00:10:42;164769.50;;;9.87;56.95
41688;BME280;27371;42.686;23.362;2023-02-20T00:13:07;164758.84;;;9.82;57.01
41688;BME280;27371;42.686;23.362;2023-02-20T00:15:33;164780.22;;;9.91;57.12
41688;BME280;27371;42.686;23.362;2023-02-20T00:17:58;164781.53;;;9.91;57.14
41688;BME280;27371;42.686;23.362;2023-02-20T00:20:25;164792.25;;;9.95;57.08
41688;BME280;27371;42.686;23.362;2023-02-20T00:22:51;164788.22;;;9.94;57.10
41688;BME280;27371;42.686;23.362;2023-02-20T00:25:18;164802.91;;;9.99;57.04
41688;BME280;27371;42.686;23.362;2023-02-20T00:27:44;164805.56;;;10.00;57.01
41688;BME280;27371;42.686;23.362;2023-02-20T00:30:20;164810.94;;;10.02;56.99
41688;BME280;27371;42.686;23.362;2023-02-20T00:32:48;164800.25;;;9.98;57.31
41688;BME280;27371;42.686;23.362;2023-02-20T00:35:14;164797.56;;;9.97;57.53
41688;BME280;27371;42.686;23.362;2023-02-20T00:37:40;164788.22;;;9.94;57.61
41688;BME280;27371;42.686;23.362;2023-02-20T00:40:06;164790.88;;;9.95;57.66
41688;BME280;27371;42.686;23.362;2023-02-20T00:42:32;164772.22;;;9.88;58.29
41688;BME280;27371;42.686;23.362;2023-02-20T00:44:58;164782.88;;;9.92;58.09
41688;BME280;27371;42.686;23.362;2023-02-20T00:47:23;164765.53;;;9.85;58.49
41688;BME280;27371;42.686;23.362;2023-02-20T00:49:48;164709.41;;;9.64;58.65
41688;BME280;27371;42.686;23.362;2023-02-20T00:52:14;164673.34;;;9.50;59.63
41688;BME280;27371;42.686;23.362;2023-02-20T00:54:39;164635.97;;;9.35;60.36
41688;BME280;27371;42.686;23.362;2023-02-20T00:57:05;164601.25;;;9.22;60.88
41688;BME280;27371;42.686;23.362;2023-02-20T00:59:30;164578.56;;;9.13;61.02
41688;BME280;27371;42.686;23.362;2023-02-20T01:04:30;164599.91;;;9.22;60.85
41688;BME280;27371;42.686;23.362;2023-02-20T01:06:56;164609.25;;;9.25;61.27
41688;BME280;27371;42.686;23.362;2023-02-20T01:09:21;164613.28;;;9.27;61.25
41688;BME280;27371;42.686;23.362;2023-02-20T01:11:47;164627.97;;;9.32;61.14
41688;BME280;27371;42.686;23.362;2023-02-20T01:14:12;164626.66;;;9.32;61.20
41688;BME280;27371;42.686;23.362;2023-02-20T01:16:49;164609.25;;;9.25;61.35
41688;BME280;27371;42.686;23.362;2023-02-20T01:19:16;164634.66;;;9.35;61.42
41688;BME280;27371;42.686;23.362;2023-02-20T01:21:41;164633.28;;;9.34;61.35
41688;BME280;27371;42.686;23.362;2023-02-20T01:24:07;164629.28;;;9.33;61.38
41688;BME280;27371;42.686;23.362;2023-02-20T01:26:32;164641.34;;;9.38;61.31
41688;BME280;27371;42.686;23.362;2023-02-20T01:28:58;164627.97;;;9.32;61.42
41688;BME280;27371;42.686;23.362;2023-02-20T01:31:24;164648.00;;;9.40;61.59
41688;BME280;27371;42.686;23.362;2023-02-20T01:33:49;164654.63;;;9.43;61.57
41688;BME280;27371;42.686;23.362;2023-02-20T01:36:15;164658.66;;;9.44;61.75
41688;BME280;27371;42.686;23.362;2023-02-20T01:38:40;164668.00;;;9.48;61.63
41688;BME280;27371;42.686;23.362;2023-02-20T01:41:08;164652.00;;;9.42;61.40
41688;BME280;27371;42.686;23.362;2023-02-20T01:43:34;164603.91;;;9.23;62.12
41688;BME280;27371;42.686;23.362;2023-02-20T01:49:04;164550.50;;;9.03;63.90
41688;BME280;27371;42.686;23.362;2023-02-20T01:51:50;164562.56;;;9.07;64.05
41688;BME280;27371;42.686;23.362;2023-02-20T01:54:20;164573.22;;;9.11;63.97
41688;BME280;27371;42.686;23.362;2023-02-20T01:56:48;164591.91;;;9.19;63.82
41688;BME280;27371;42.686;23.362;2023-02-20T01:59:15;164607.94;;;9.25;63.89
41688;BME280;27371;42.686;23.362;2023-02-20T02:01:41;164626.66;;;9.32;63.58
41688;BME280;27371;42.686;23.362;2023-02-20T02:04:08;164637.31;;;9.36;63.57
41688;BME280;27371;42.686;23.362;2023-02-20T02:06:38;164643.97;;;9.39;63.54
41688;BME280;27371;42.686;23.362;2023-02-20T02:09:15;164633.28;;;9.34;63.60
41688;BME280;27371;42.686;23.362;2023-02-20T02:11:44;164656.03;;;9.43;63.51
41688;BME280;27371;42.686;23.362;2023-02-20T02:14:11;164652.00;;;9.42;63.54
41688;BME280;27371;42.686;23.362;2023-02-20T02:17:17;164641.34;;;9.38;63.25
41688;BME280;27371;42.686;23.362;2023-02-20T02:36:44;164442.38;;;8.61;63.71
41688;BME280;27371;42.686;23.362;2023-02-20T02:42:09;164355.59;;;8.28;65.05
41688;BME280;27371;42.686;23.362;2023-02-20T02:45:09;164356.91;;;8.29;65.13
41688;BME280;27371;42.686;23.362;2023-02-20T02:47:50;164339.59;;;8.22;65.26
41688;BME280;27371;42.686;23.362;2023-02-20T02:50:28;164351.56;;;8.26;65.29
41688;BME280;27371;42.686;23.362;2023-02-20T02:52:56;164359.56;;;8.30;65.11
41688;BME280;27371;42.686;23.362;2023-02-20T02:55:28;164366.25;;;8.32;64.98
41688;BME280;27371;42.686;23.362;2023-02-20T02:57:54;164364.94;;;8.32;64.83
41688;BME280;27371;42.686;23.362;2023-02-20T03:05:23;164367.63;;;8.33;65.36
41688;BME280;27371;42.686;23.362;2023-02-20T03:07:54;164367.63;;;8.33;65.49
41688;BME280;27371;42.686;23.362;2023-02-20T03:10:23;164364.94;;;8.32;65.39
41688;BME280;27371;42.686;23.362;2023-02-20T03:12:58;164354.28;;;8.28;65.56
41688;BME280;27371;42.686;23.362;2023-02-20T03:15:37;164372.91;;;8.35;65.48
41688;BME280;27371;42.686;23.362;2023-02-20T03:18:12;164375.63;;;8.36;65.56
41688;BME280;27371;42.686;23.362;2023-02-20T03:20:50;164360.94;;;8.30;65.74
41688;BME280;27371;42.686;23.362;2023-02-20T03:23:23;164348.91;;;8.25;65.80
41688;BME280;27371;42.686;23.362;2023-02-20T03:25:57;164315.53;;;8.13;65.40
41688;BME280;27371;42.686;23.362;2023-02-20T03:28:29;164270.19;;;7.95;66.19
41688;BME280;27371;42.686;23.362;2023-02-20T03:31:21;164223.53;;;7.77;67.10
41688;BME280;27371;42.686;23.362;2023-02-20T03:33:59;164195.50;;;7.67;67.60
41688;BME280;27371;42.686;23.362;2023-02-20T03:36:50;164190.16;;;7.65;67.93
41688;BME280;27371;42.686;23.362;2023-02-20T03:39:40;164191.47;;;7.65;67.98
41688;BME280;27371;42.686;23.362;2023-02-20T03:42:28;164195.50;;;7.67;67.46
41688;BME280;27371;42.686;23.362;2023-02-20T03:45:15;164215.47;;;7.74;67.10
41688;BME280;27371;42.686;23.362;2023-02-20T03:47:44;164223.53;;;7.77;66.53
41688;BME280;27371;42.686;23.362;2023-02-20T03:50:12;164242.16;;;7.85;66.20
41688;BME280;27371;42.686;23.362;2023-02-20T03:52:57;164250.16;;;7.88;65.92
41688;BME280;27371;42.686;23.362;2023-02-20T03:55:23;164242.16;;;7.85;65.46
41688;BME280;27371;42.686;23.362;2023-02-20T03:57:51;164243.50;;;7.85;65.89
41688;BME280;27371;42.686;23.362;2023-02-20T04:00:21;164248.84;;;7.87;65.80
41688;BME280;27371;42.686;23.362;2023-02-20T04:02:50;164238.19;;;7.83;65.76
41688;BME280;27371;42.686;23.362;2023-02-20T04:05:26;164248.84;;;7.87;65.45
41688;BME280;27371;42.686;23.362;2023-02-20T04:07:54;164244.88;;;7.86;65.53
41688;BME280;27371;42.686;23.362;2023-02-20T04:10:27;164230.16;;;7.80;65.38
41688;BME280;27371;42.686;23.362;2023-02-20T04:12:53;164240.84;;;7.84;65.46
41688;BME280;27371;42.686;23.362;2023-02-20T04:15:22;164243.50;;;7.85;65.22
41688;BME280;27371;42.686;23.362;2023-02-20T04:18:01;164232.84;;;7.81;65.09
41688;BME280;27371;42.686;23.362;2023-02-20T04:20:28;164206.16;;;7.71;65.23
41688;BME280;27371;42.686;23.362;2023-02-20T04:22:57;164180.84;;;7.61;65.85
41688;BME280;27371;42.686;23.362;2023-02-20T04:25:38;164154.16;;;7.51;66.41
41688;BME280;27371;42.686;23.362;2023-02-20T04:28:05;164147.47;;;7.48;66.87
41688;BME280;27371;42.686;23.362;2023-02-20T04:30:31;164150.13;;;7.49;67.11
41688;BME280;27371;42.686;23.362;2023-02-20T04:32:56;164158.13;;;7.52;66.91
41688;BME280;27371;42.686;23.362;2023-02-20T04:35:22;164155.47;;;7.51;67.08
41688;BME280;27371;42.686;23.362;2023-02-20T04:37:47;164167.50;;;7.56;66.62
41688;BME280;27371;42.686;23.362;2023-02-20T04:40:17;164184.81;;;7.63;66.47
41688;BME280;27371;42.686;23.362;2023-02-20T04:42:42;164191.47;;;7.65;66.63
41688;BME280;27371;42.686;23.362;2023-02-20T04:45:08;164195.50;;;7.67;66.36
41688;BME280;27371;42.686;23.362;2023-02-20T04:47:34;164188.84;;;7.64;66.55
41688;BME280;27371;42.686;23.362;2023-02-20T04:49:59;164194.13;;;7.66;66.40
41688;BME280;27371;42.686;23.362;2023-02-20T04:52:25;164188.84;;;7.64;66.47
41688;BME280;27371;42.686;23.362;2023-02-20T04:54:50;164188.84;;;7.64;66.12
41688;BME280;27371;42.686;23.362;2023-02-20T04:57:17;164187.50;;;7.64;65.81
41688;BME280;27371;42.686;23.362;2023-02-20T04:59:42;164172.78;;;7.58;65.58
41688;BME280;27371;42.686;23.362;2023-02-20T05:02:07;164178.13;;;7.60;65.18
41688;BME280;27371;42.686;23.362;2023-02-20T05:04:34;164180.84;;;7.61;64.60
41688;BME280;27371;42.686;23.362;2023-02-20T05:07:00;164220.81;;;7.76;64.54
41688;BME280;27371;42.686;23.362;2023-02-20T05:09:26;164222.16;;;7.77;63.46
41688;BME280;27371;42.686;23.362;2023-02-20T05:11:51;164195.50;;;7.67;62.51
41688;BME280;27371;42.686;23.362;2023-02-20T05:14:17;164134.13;;;7.43;62.37
41688;BME280;27371;42.686;23.362;2023-02-20T05:16:43;164194.13;;;7.66;63.73
41688;BME280;27371;42.686;23.362;2023-02-20T05:19:10;164174.16;;;7.58;61.70
41688;BME280;27371;42.686;23.362;2023-02-20T05:21:35;164142.13;;;7.46;61.15
41688;BME280;27371;42.686;23.362;2023-02-20T05:24:19;164126.13;;;7.40;60.96
41688;BME280;27371;42.686;23.362;2023-02-20T05:26:45;164123.47;;;7.39;60.67
41688;BME280;27371;42.686;23.362;2023-02-20T05:29:11;164110.13;;;7.34;60.37
41688;BME280;27371;42.686;23.362;2023-02-20T05:31:41;164130.16;;;7.42;60.23
41688;BME280;27371;42.686;23.362;2023-02-20T05:34:07;164138.16;;;7.45;59.90
41688;BME280;27371;42.686;23.362;2023-02-20T05:36:33;164148.81;;;7.49;60.10
41688;BME280;27371;42.686;23.362;2023-02-20T05:38:59;164155.47;;;7.51;60.42
41688;BME280;27371;42.686;23.362;2023-02-20T05:41:24;164166.16;;;7.55;60.26
41688;BME280;27371;42.686;23.362;2023-02-20T05:43:50;164174.16;;;7.58;60.40
41688;BME280;27371;42.686;23.362;2023-02-20T05:46:16;164172.78;;;7.58;60.50
41688;BME280;27371;42.686;23.362;2023-02-20T05:48:42;164198.16;;;7.68;60.24
41688;BME280;27371;42.686;23.362;2023-02-20T05:51:08;164212.81;;;7.73;60.58
41688;BME280;27371;42.686;23.362;2023-02-20T05:53:33;164235.50;;;7.82;60.61
41688;BME280;27371;42.686;23.362;2023-02-20T05:55:59;164258.16;;;7.91;60.49
41688;BME280;27371;42.686;23.362;2023-02-20T05:58:24;164236.81;;;7.82;60.70
41688;BME280;27371;42.686;23.362;2023-02-20T06:00:50;164282.22;;;8.00;60.80
41688;BME280;27371;42.686;23.362;2023-02-20T06:03:17;164310.25;;;8.11;60.13
41688;BME280;27371;42.686;23.362;2023-02-20T06:05:43;164292.88;;;8.04;60.14
41688;BME280;27371;42.686;23.362;2023-02-20T06:08:08;164264.84;;;7.93;60.69
41688;BME280;27371;42.686;23.362;2023-02-20T06:10:35;164254.19;;;7.89;60.80
41688;BME280;27371;42.686;23.362;2023-02-20T06:13:01;164263.53;;;7.93;60.36
41688;BME280;27371;42.686;23.362;2023-02-20T06:15:26;164279.53;;;7.99;60.04
41688;BME280;27371;42.686;23.362;2023-02-20T06:17:52;164287.50;;;8.02;59.79
41688;BME280;27371;42.686;23.362;2023-02-20T06:20:17;164296.91;;;8.06;58.85
41688;BME280;27371;42.686;23.362;2023-02-20T06:22:46;164320.91;;;8.15;57.22
41688;BME280;27371;42.686;23.362;2023-02-20T06:25:12;164363.59;;;8.31;56.54
41688;BME280;27371;42.686;23.362;2023-02-20T06:27:37;164422.38;;;8.54;55.95
41688;BME280;27371;42.686;23.362;2023-02-20T06:30:04;164499.78;;;8.83;54.83
41688;BME280;27371;42.686;23.362;2023-02-20T06:32:29;164551.84;;;9.03;53.91
41688;BME280;27371;42.686;23.362;2023-02-20T06:34:55;164575.91;;;9.12;53.33
41688;BME280;27371;42.686;23.362;2023-02-20T06:37:20;164597.22;;;9.21;52.94
41688;BME280;27371;42.686;23.362;2023-02-20T06:39:46;164586.56;;;9.17;54.00
41688;BME280;27371;42.686;23.362;2023-02-20T06:42:13;164633.28;;;9.34;52.30
41688;BME280;27371;42.686;23.362;2023-02-20T06:44:39;164665.34;;;9.47;51.84
41688;BME280;27371;42.686;23.362;2023-02-20T06:47:04;164661.31;;;9.45;51.24
41688;BME280;27371;42.686;23.362;2023-02-20T06:49:34;164674.69;;;9.50;51.50
41688;BME280;27371;42.686;23.362;2023-02-20T06:52:00;164698.75;;;9.59;51.23
41688;BME280;27371;42.686;23.362;2023-02-20T06:54:26;164704.06;;;9.62;51.06
41688;BME280;27371;42.686;23.362;2023-02-20T06:56:51;164689.38;;;9.56;50.99
41688;BME280;27371;42.686;23.362;2023-02-20T06:59:17;164702.72;;;9.61;50.83
41688;BME280;27371;42.686;23.362;2023-02-20T07:01:43;164676.00;;;9.51;50.24
41688;BME280;27371;42.686;23.362;2023-02-20T07:04:15;164672.03;;;9.49;50.46
41688;BME280;27371;42.686;23.362;2023-02-20T07:06:41;164648.00;;;9.40;50.55
41688;BME280;27371;42.686;23.362;2023-02-20T07:09:08;164662.69;;;9.46;50.64
41688;BME280;27371;42.686;23.362;2023-02-20T07:11:33;164658.66;;;9.44;50.47
41688;BME280;27371;42.686;23.362;2023-02-20T07:13:59;164716.09;;;9.66;49.98
41688;BME280;27371;42.686;23.362;2023-02-20T07:16:24;164745.47;;;9.77;49.68
41688;BME280;27371;42.686;23.362;2023-02-20T07:18:50;164773.53;;;9.88;48.58
41688;BME280;27371;42.686;23.362;2023-02-20T07:21:15;164820.25;;;10.06;48.40
41688;BME280;27371;42.686;23.362;2023-02-20T07:23:43;164855.00;;;10.19;47.10
41688;BME280;27371;42.686;23.362;2023-02-20T07:26:20;164901.84;;;10.37;46.72
41688;BME280;27371;42.686;23.362;2023-02-20T07:28:46;164904.50;;;10.38;45.58
41688;BME280;27371;42.686;23.362;2023-02-20T07:31:11;164836.34;;;10.12;45.95
41688;BME280;27371;42.686;23.362;2023-02-20T07:33:37;164792.25;;;9.95;46.43
41688;BME280;27371;42.686;23.362;2023-02-20T07:36:03;164784.19;;;9.92;45.99
41688;BME280;27371;42.686;23.362;2023-02-20T07:38:28;164792.25;;;9.95;46.05
41688;BME280;27371;42.686;23.362;2023-02-20T07:40:54;164782.88;;;9.92;45.76
41688;BME280;27371;42.686;23.362;2023-02-20T07:43:20;164784.19;;;9.92;45.73
41688;BME280;27371;42.686;23.362;2023-02-20T07:45:46;164790.88;;;9.95;45.50
41688;BME280;27371;42.686;23.362;2023-02-20T07:48:12;164861.69;;;10.22;45.05
41688;BME280;27371;42.686;23.362;2023-02-20T07:50:37;164887.16;;;10.32;43.99
41688;BME280;27371;42.686;23.362;2023-02-20T07:53:03;164891.13;;;10.33;43.54
41688;BME280;27371;42.686;23.362;2023-02-20T07:55:28;164877.75;;;10.28;43.39
41688;BME280;27371;42.686;23.362;2023-02-20T07:57:54;164888.47;;;10.32;43.42
41688;BME280;27371;42.686;23.362;2023-02-20T08:00:26;164916.53;;;10.43;43.20
41688;BME280;27371;42.686;23.362;2023-02-20T08:02:52;164915.22;;;10.42;43.34
41688;BME280;27371;42.686;23.362;2023-02-20T08:05:18;164952.63;;;10.57;43.21
41688;BME280;27371;42.686;23.362;2023-02-20T08:07:44;164982.00;;;10.68;42.42
41688;BME280;27371;42.686;23.362;2023-02-20T08:10:11;165027.44;;;10.85;42.24
41688;BME280;27371;42.686;23.362;2023-02-20T08:12:37;165072.91;;;11.03;41.16
41688;BME280;27371;42.686;23.362;2023-02-20T08:15:03;165063.53;;;10.99;41.31
41688;BME280;27371;42.686;23.362;2023-02-20T08:17:29;165103.66;;;11.14;41.07
41688;BME280;27371;42.686;23.362;2023-02-20T08:19:54;165134.38;;;11.26;40.60
41688;BME280;27371;42.686;23.362;2023-02-20T08:22:20;165123.72;;;11.22;40.10
41688;BME280;27371;42.686;23.362;2023-02-20T08:24:45;165080.94;;;11.06;40.37
41688;BME280;27371;42.686;23.362;2023-02-20T08:27:10;165088.94;;;11.09;40.47
41688;BME280;27371;42.686;23.362;2023-02-20T08:29:36;165119.69;;;11.21;40.21
41688;BME280;27371;42.686;23.362;2023-02-20T08:32:01;165147.75;;;11.31;40.19
41688;BME280;27371;42.686;23.362;2023-02-20T08:34:27;165170.47;;;11.40;39.41
41688;BME280;27371;42.686;23.362;2023-02-20T08:36:52;165169.16;;;11.40;39.00
41688;BME280;27371;42.686;23.362;2023-02-20T08:39:18;165194.53;;;11.49;38.94
41688;BME280;27371;42.686;23.362;2023-02-20T08:41:45;165185.19;;;11.46;38.41
41688;BME280;27371;42.686;23.362;2023-02-20T08:44:12;165178.50;;;11.43;38.88
41688;BME280;27371;42.686;23.362;2023-02-20T08:46:45;165202.59;;;11.52;38.67
41688;BME280;27371;42.686;23.362;2023-02-20T08:49:10;165221.28;;;11.59;38.72
41688;BME280;27371;42.686;23.362;2023-02-20T08:51:36;165266.75;;;11.77;38.72
41688;BME280;27371;42.686;23.362;2023-02-20T08:54:01;165301.56;;;11.90;38.24
41688;BME280;27371;42.686;23.362;2023-02-20T08:56:28;165308.25;;;11.93;37.37
41688;BME280;27371;42.686;23.362;2023-02-20T08:58:54;165285.47;;;11.84;37.00
41688;BME280;27371;42.686;23.362;2023-02-20T09:01:19;165321.63;;;11.98;37.61
41688;BME280;27371;42.686;23.362;2023-02-20T09:03:44;165349.72;;;12.09;37.11
41688;BME280;27371;42.686;23.362;2023-02-20T09:06:10;165352.38;;;12.10;36.97
41688;BME280;27371;42.686;23.362;2023-02-20T09:08:36;165343.03;;;12.06;36.70
41688;BME280;27371;42.686;23.362;2023-02-20T09:11:02;165314.94;;;11.95;36.96
41688;BME280;27371;42.686;23.362;2023-02-20T09:13:27;165343.03;;;12.06;37.02
41688;BME280;27371;42.686;23.362;2023-02-20T09:15:53;165325.69;;;11.99;36.75
41688;BME280;27371;42.686;23.362;2023-02-20T09:18:19;165276.13;;;11.80;37.24
41688;BME280;27371;42.686;23.362;2023-02-20T09:20:44;165246.72;;;11.69;37.35
41688;BME280;27371;42.686;23.362;2023-02-20T09:23:10;165262.75;;;11.75;37.73
41688;BME280;27371;42.686;23.362;2023-02-20T09:25:36;165257.38;;;11.73;37.39
41688;BME280;27371;42.686;23.362;2023-02-20T09:28:02;165285.47;;;11.84;37.64
41688;BME280;27371;42.686;23.362;2023-02-20T09:30:27;165293.56;;;11.87;37.23
41688;BME280;27371;42.686;23.362;2023-02-20T09:32:53;165300.25;;;11.90;37.20
41688;BME280;27371;42.686;23.362;2023-02-20T09:35:23;165241.34;;;11.67;37.38
41688;BME280;27371;42.686;23.362;2023-02-20T09:37:49;165207.91;;;11.54;37.95
41688;BME280;27371;42.686;23.362;2023-02-20T09:40:16;165229.31;;;11.63;38.50
41688;BME280;27371;42.686;23.362;2023-02-20T09:45:27;165296.25;;;11.88;37.83
41688;BME280;27371;42.686;23.362;2023-02-20T09:48:04;165282.81;;;11.83;38.13
41688;BME280;27371;42.686;23.362;2023-02-20T09:51:12;165286.81;;;11.85;38.04
41688;BME280;27371;42.686;23.362;2023-02-20T09:53:46;165274.81;;;11.80;38.53
41688;BME280;27371;42.686;23.362;2023-02-20T09:56:19;165264.09;;;11.76;38.81
41688;BME280;27371;42.686;23.362;2023-02-20T09:59:06;165278.78;;;11.81;39.01
41688;BME280;27371;42.686;23.362;2023-02-20T10:01:40;165292.22;;;11.87;38.14
41688;BME280;27371;42.686;23.362;2023-02-20T10:04:14;165296.25;;;11.88;37.57
41688;BME280;27371;42.686;23.362;2023-02-20T10:06:42;165316.28;;;11.96;37.78
41688;BME280;27371;42.686;23.362;2023-02-20T10:09:12;165330.97;;;12.01;37.56
41688;BME280;27371;42.686;23.362;2023-02-20T10:11:54;165347.06;;;12.08;37.54
41688;BME280;27371;42.686;23.362;2023-02-20T10:14:41;165308.25;;;11.93;37.37
41688;BME280;27371;42.686;23.362;2023-02-20T10:17:58;165234.66;;;11.65;37.79
41688;BME280;27371;42.686;23.362;2023-02-20T10:25:42;165215.94;;;11.57;37.57
41688;BME280;27371;42.686;23.362;2023-02-20T10:28:19;165214.59;;;11.57;37.31
41688;BME280;27371;42.686;23.362;2023-02-20T10:30:58;165244.00;;;11.68;37.02
41688;BME280;27371;42.686;23.362;2023-02-20T10:33:40;165260.09;;;11.74;36.69
41688;BME280;27371;42.686;23.362;2023-02-20T10:36:24;165300.25;;;11.90;36.20
41688;BME280;27371;42.686;23.362;2023-02-20T10:41:33;165297.59;;;11.89;36.05
41688;BME280;27371;42.686;23.362;2023-02-20T10:49:37;165321.63;;;11.98;35.68
41688;BME280;27371;42.686;23.362;2023-02-20T10:52:13;165300.25;;;11.90;35.97
41688;BME280;27371;42.686;23.362;2023-02-20T10:54:44;165333.69;;;12.02;36.00
41688;BME280;27371;42.686;23.362;2023-02-20T10:57:21;165336.34;;;12.03;35.49
41688;BME280;27371;42.686;23.362;2023-02-20T11:00:05;165333.69;;;12.02;35.68
41688;BME280;27371;42.686;23.362;2023-02-20T11:02:36;165337.69;;;12.04;36.05
41688;BME280;27371;42.686;23.362;2023-02-20T11:05:13;165349.72;;;12.09;35.56
41688;BME280;27371;42.686;23.362;2023-02-20T11:07:41;165332.38;;;12.02;35.59
41688;BME280;27371;42.686;23.362;2023-02-20T11:10:07;165300.25;;;11.90;35.59
41688;BME280;27371;42.686;23.362;2023-02-20T11:12:40;165276.13;;;11.80;36.19
41688;BME280;27371;42.686;23.362;2023-02-20T11:15:21;165218.63;;;11.58;36.63
41688;BME280;27371;42.686;23.362;2023-02-20T11:17:52;165199.88;;;11.51;37.50
41688;BME280;27371;42.686;23.362;2023-02-20T11:29:01;165253.41;;;11.72;37.93
41688;BME280;27371;42.686;23.362;2023-02-20T11:31:27;165278.78;;;11.81;37.40
41688;BME280;27371;42.686;23.362;2023-02-20T11:33:54;165288.13;;;11.85;37.09
41688;BME280;27371;42.686;23.362;2023-02-20T11:36:26;165278.78;;;11.81;37.09
41688;BME280;27371;42.686;23.362;2023-02-20T11:38:59;165273.44;;;11.79;36.98
41688;BME280;27371;42.686;23.362;2023-02-20T11:41:32;165280.13;;;11.82;36.80
41688;BME280;27371;42.686;23.362;2023-02-20T11:46:38;165288.13;;;11.85;37.15
41688;BME280;27371;42.686;23.362;2023-02-20T11:49:06;165317.59;;;11.96;37.17
41688;BME280;27371;42.686;23.362;2023-02-20T11:54:23;165369.81;;;12.16;36.62
41688;BME280;27371;42.686;23.362;2023-02-20T11:59:34;165347.06;;;12.08;36.30
41688;BME280;27371;42.686;23.362;2023-02-20T12:07:33;165405.91;;;12.30;36.21
41688;BME280;27371;42.686;23.362;2023-02-20T12:12:53;165359.06;;;12.12;35.78
41688;BME280;27371;42.686;23.362;2023-02-20T12:15:22;165339.00;;;12.04;36.03
41688;BME280;27371;42.686;23.362;2023-02-20T12:20:33;165351.06;;;12.09;35.91
41688;BME280;27371;42.686;23.362;2023-02-20T12:25:57;165395.19;;;12.26;35.48
41688;BME280;27371;42.686;23.362;2023-02-20T12:36:40;165423.28;;;12.37;35.45
41688;BME280;27371;42.686;23.362;2023-02-20T12:47:42;165471.47;;;12.55;34.91
41688;BME280;27371;42.686;23.362;2023-02-20T13:00:42;165491.56;;;12.63;34.83
41688;BME280;27371;42.686;23.362;2023-02-20T13:06:03;165494.19;;;12.64;34.64
41688;BME280;27371;42.686;23.362;2023-02-20T13:08:33;165472.81;;;12.56;34.83
41688;BME280;27371;42.686;23.362;2023-02-20T13:11:08;165440.72;;;12.43;35.26
41688;BME280;27371;42.686;23.362;2023-02-20T13:22:02;165499.56;;;12.66;35.02
41688;BME280;27371;42.686;23.362;2023-02-20T13:24:30;165503.56;;;12.67;34.87
41688;BME280;27371;42.686;23.362;2023-02-20T13:26:59;165466.09;;;12.53;35.25
41688;BME280;27371;42.686;23.362;2023-02-20T13:29:32;165487.50;;;12.61;35.24
41688;BME280;27371;42.686;23.362;2023-02-20T13:32:00;165504.88;;;12.68;35.19
41688;BME280;27371;42.686;23.362;2023-02-20T13:34:28;165504.88;;;12.68;35.02
41688;BME280;27371;42.686;23.362;2023-02-20T13:36:54;165511.56;;;12.70;35.25
41688;BME280;27371;42.686;23.362;2023-02-20T13:47:46;165599.94;;;13.04;35.02
41688;BME280;27371;42.686;23.362;2023-02-20T13:52:45;165641.38;;;13.20;34.92
41688;BME280;27371;42.686;23.362;2023-02-20T14:03:00;165603.91;;;13.06;35.12
41688;BME280;27371;42.686;23.362;2023-02-20T14:05:30;165551.75;;;12.86;35.23
41688;BME280;27371;42.686;23.362;2023-02-20T14:07:57;165486.19;;;12.61;35.74
41688;BME280;27371;42.686;23.362;2023-02-20T14:10:36;165454.03;;;12.48;36.36
41688;BME280;27371;42.686;23.362;2023-02-20T14:15:46;165412.63;;;12.33;36.46
41688;BME280;27371;42.686;23.362;2023-02-20T14:18:17;165395.19;;;12.26;36.81
41688;BME280;27371;42.686;23.362;2023-02-20T14:20:43;165407.25;;;12.31;36.69
41688;BME280;27371;42.686;23.362;2023-02-20T14:23:25;165421.97;;;12.36;37.12
41688;BME280;27371;42.686;23.362;2023-02-20T14:25:59;165416.59;;;12.34;36.84
41688;BME280;27371;42.686;23.362;2023-02-20T14:28:26;165411.25;;;12.32;37.13
41688;BME280;27371;42.686;23.362;2023-02-20T14:31:17;165411.25;;;12.32;37.34
41688;BME280;27371;42.686;23.362;2023-02-20T14:33:44;165401.88;;;12.29;37.33
41688;BME280;27371;42.686;23.362;2023-02-20T14:41:29;165349.72;;;12.09;37.99
41688;BME280;27371;42.686;23.362;2023-02-20T14:44:00;165353.78;;;12.10;38.45
41688;BME280;27371;42.686;23.362;2023-02-20T14:46:29;165336.34;;;12.03;38.48
41688;BME280;27371;42.686;23.362;2023-02-20T14:49:14;165316.28;;;11.96;38.61
41688;BME280;27371;42.686;23.362;2023-02-20T14:51:40;165296.25;;;11.88;39.01
41688;BME280;27371;42.686;23.362;2023-02-20T14:54:22;165290.88;;;11.86;38.93
41688;BME280;27371;42.686;23.362;2023-02-20T14:56:49;165270.78;;;11.78;39.04
41688;BME280;27371;42.686;23.362;2023-02-20T14:59:45;165248.03;;;11.70;39.32
41688;BME280;27371;42.686;23.362;2023-02-20T15:02:21;165237.31;;;11.66;39.37
41688;BME280;27371;42.686;23.362;2023-02-20T15:04:52;165210.63;;;11.55;39.47
41688;BME280;27371;42.686;23.362;2023-02-20T15:07:21;165157.09;;;11.35;39.99
41688;BME280;27371;42.686;23.362;2023-02-20T15:09:50;165087.63;;;11.08;40.67
41688;BME280;27371;42.686;23.362;2023-02-20T15:12:30;165059.53;;;10.98;41.20
41688;BME280;27371;42.686;23.362;2023-02-20T15:15:03;165042.13;;;10.91;41.67
41688;BME280;27371;42.686;23.362;2023-02-20T15:17:34;165042.13;;;10.91;41.59
41688;BME280;27371;42.686;23.362;2023-02-20T15:20:00;165035.47;;;10.88;41.61